METAR Data
IDs: Format: Raw Decoded Include TAF

Data at: 0325 UTC 19 Oct 2021

PFWS 190256Z AUTO 28005KT 8SM CLR 03/M02 A2961 RMK AO2 SLP070 T00331017 58009
PFWS 190056Z AUTO 32003KT 8SM CLR 06/M03 A2962 RMK AO2 SLP075 T00561028
PFWS 182356Z AUTO 34004KT 8SM CLR 05/M03 A2963 RMK AO2 SLP078 T00501033 10050 21017 58009
PFWS 182256Z AUTO 01005KT 8SM CLR 04/M03 A2965 RMK AO2 SLP083 T00441028
PFWS 182156Z AUTO 02006KT 8SM CLR 04/M03 A2965 RMK AO2 SLP085 T00391033
PFWS 182056Z AUTO 36008KT 8SM CLR 02/M04 A2966 RMK AO2 SLP088 T00221039 51008 FZRANO
PFWS 181956Z AUTO 01010KT 8SM CLR 01/M04 A2966 RMK AO2 SLP088 T00061044 FZRANO
PFWS 181856Z AUTO 01015G18KT 8SM CLR M01/M04 A2966 RMK AO2 SLP086 T10061044 FZRANO
PFWS 181756Z AUTO 36012KT 8SM CLR M02/M04 A2964 RMK AO2 SLP079 T10171044 10006 21022 53015 FZRANO
PFWS 181656Z AUTO 01006KT 9SM CLR M02/M04 A2962 RMK AO2 SLP073 T10171044 FZRANO
PFWS 181556Z AUTO 36014KT 9SM CLR M01/M04 A2961 RMK AO2 SLP070 T10111044 FZRANO
PFWS 181456Z AUTO 36013KT 9SM CLR M01/M03 A2959 RMK AO2 SLP065 T10061033 51025 FZRANO
PFWS 181356Z AUTO 01014KT 9SM CLR 00/M03 A2957 RMK AO2 SLP057 T00001033 FZRANO
PFWS 181256Z AUTO 01014KT 9SM FEW100 00/M03 A2954 RMK AO2 SLP048 T00001033 FZRANO
PFWS 181156Z AUTO VRB04KT 9SM CLR 01/M03 A2952 RMK AO2 SLP039 70006 T00061033 10056 20006 53038 FZRANO
PFWS 181056Z AUTO 02015KT 9SM FEW110 02/M03 A2947 RMK AO2 SLP024 T00171033 FZRANO
PFWS 180956Z AUTO 02015G23KT 9SM CLR 02/M03 A2944 RMK AO2 PK WND 01030/0921 SLP011 T00171028 FZRANO
PFWS 180856Z AUTO 01015G21KT 9SM CLR 03/M02 A2941 RMK AO2 PRESRR SLP000 T00281022 400610022 53044
PFWS 180756Z AUTO 02016KT 9SM SCT120 04/M01 A2936 RMK AO2 PRESRR SLP985 T00391011
PFWS 180556Z AUTO 03018G22KT 10SM CLR 06/M01 A2928 RMK AO2 PK WND 02028/0509 SLP955 T00561006 10061 20050 52057
PFWS 180356Z AUTO 04020G27KT 10SM OVC120 06/00 A2916 RMK AO2 PK WND 05035/0306 SLP917 T00560000
PFWS 180256Z AUTO 05027G36KT 8SM CLR 06/01 A2911 RMK AO2 PK WND 05040/0223 SLP898 T00560011 53038
PFWS 180156Z AUTO 05030G35KT 8SM SCT065 05/01 A2905 RMK AO2 PK WND 04040/0132 SLP880 T00500011
PFWS 180056Z AUTO 05029G42KT 8SM SCT065 06/02 A2903 RMK AO2 PK WND 05042/0055 SLP872 T00560017
PFWS 172356Z AUTO 05030G39KT 10SM CLR 05/02 A2900 RMK AO2 PK WND 05042/2342 SLP860 60002 T00500017 10056 20039 53018
PFWS 172256Z AUTO 06028G34KT 10SM CLR 04/01 A2897 RMK AO2 PK WND 06034/2256 SLP851 T00440011
PFWS 172156Z AUTO 05019G25KT 10SM SCT047 OVC060 06/02 A2895 RMK AO2 RAE2057 SLP845 T00560017
PFWS 172056Z AUTO 05014KT 10SM -RA FEW036 OVC046 04/02 A2894 RMK AO2 SLP842 P0001 60002 T00440017 51016
PFWS 171956Z AUTO 04008KT 10SM -RA OVC033 04/02 A2894 RMK AO2 SLP841 P0000 T00390017
PFWS 171906Z AUTO 06008KT 10SM -RA SCT025 OVC031 04/01 A2892 RMK AO2 P0000
PFWS 171856Z AUTO 06013G19KT 10SM -RA BKN025 OVC031 05/01 A2892 RMK AO2 PK WND 09031/1805 SLP833 P0001 T00500011
PFWS 171803Z AUTO 10026G31KT 10SM -RA BKN027 OVC037 05/01 A2890 RMK AO2 PK WND 10030/1803 P0000
PFWS 171756Z AUTO 10023G31KT 10SM -RA SCT029 BKN037 OVC044 05/01 A2890 RMK AO2 PK WND 11035/1738 RAE32B49 SLP827 P0000 60004 T00500011 10050 20033 53001
PFWS 171721Z AUTO 09024G31KT 10SM -RA SCT029 OVC035 05/01 A2888 RMK AO2 PK WND 10034/1658 P0000
PFWS 171656Z AUTO 10025G31KT 10SM -RA OVC028 04/02 A2888 RMK AO2 PK WND 11036/1634 SLP821 P0000 T00440017
PFWS 171556Z AUTO 10026G32KT 10SM -RA FEW024 OVC035 04/02 A2888 RMK AO2 PK WND 10034/1542 SLP821 P0000 T00440017
PFWS 171549Z AUTO 10022G34KT 10SM -RA SCT024 OVC035 04/02 A2888 RMK AO2 PK WND 10034/1542 P0000